Time;durP1;ratioP1;P1;durP2;ratioP2;P2;SDS_P1;SDS_P2;PMS_P1;PMS_P2;Temp;Humidity;BMP_temperature;BMP_pressure;BME280_temperature;BME280_humidity;BME280_pressure;Samples;Min_cycle;Max_cycle;Signal;HPM_P1;HPM_P2
2022/06/19 00:00:59;;;;;;;8.35;2.40;;;;;;;17.50;70.65;100772.88;4889851;29;20440;-79
2022/06/19 00:03:42;;;;;;;9.13;2.30;;;;;;;17.48;70.38;100764.22;4913795;29;20064;-78
2022/06/19 00:06:08;;;;;;;;;;;;;;;17.52;69.76;100770.88;4894658;29;20028;-79
2022/06/19 00:08:34;;;;;;;12.95;2.50;;;;;;;17.33;70.64;100766.66;4901866;29;19938;-79
2022/06/19 00:11:00;;;;;;;10.80;2.30;;;;;;;17.27;70.90;100761.97;4904691;29;20079;-78
2022/06/19 00:13:25;;;;;;;10.38;2.50;;;;;;;17.17;71.00;100761.22;4918365;29;20072;-78
2022/06/19 00:15:51;;;;;;;9.95;2.22;;;;;;;17.16;71.29;100744.44;4924011;29;20103;-79
2022/06/19 00:18:16;;;;;;;8.77;2.22;;;;;;;17.10;71.09;100744.25;4924525;29;20115;-78
2022/06/19 00:20:42;;;;;;;11.27;2.40;;;;;;;17.11;71.17;100756.56;4926867;29;20048;-78
2022/06/19 00:23:07;;;;;;;8.70;2.03;;;;;;;17.06;71.14;100758.84;4918780;29;20051;-78
2022/06/19 00:25:34;;;;;;;8.05;2.00;;;;;;;17.02;71.56;100760.16;4926428;29;20044;-78
2022/06/19 00:28:00;;;;;;;10.85;2.55;;;;;;;16.97;71.63;100767.78;4905580;29;20048;-78
2022/06/19 00:30:25;;;;;;;6.47;2.08;;;;;;;16.96;71.56;100779.41;4923461;29;20036;-78
2022/06/19 00:32:51;;;;;;;11.68;2.50;;;;;;;16.99;71.02;100792.38;4923572;29;20028;-78
2022/06/19 00:35:16;;;;;;;11.68;2.70;;;;;;;16.99;71.31;100787.06;4916357;29;20036;-79
2022/06/19 00:37:41;;;;;;;10.38;2.70;;;;;;;16.95;71.59;100783.06;4909634;29;20033;-79
2022/06/19 00:40:09;;;;;;;12.05;2.97;;;;;;;16.87;71.64;100792.63;4923093;29;20028;-79
2022/06/19 00:42:35;;;;;;;11.23;2.28;;;;;;;16.73;71.06;100792.34;4923476;29;20069;-78
2022/06/19 00:45:02;;;;;;;10.05;2.58;;;;;;;16.63;71.24;100789.75;4926180;29;20029;-79
2022/06/19 00:47:35;;;;;;;8.10;2.50;;;;;;;16.50;71.18;100790.16;4925355;29;20016;-78
2022/06/19 00:50:12;;;;;;;11.63;3.00;;;;;;;16.52;70.81;100788.19;4923454;29;20033;-79
2022/06/19 00:52:40;;;;;;;8.40;2.30;;;;;;;16.40;70.40;100783.22;4924728;29;20186;-78
2022/06/19 00:55:27;;;;;;;11.20;2.80;;;;;;;16.36;70.26;100782.72;4925519;29;20028;-77
2022/06/19 00:58:04;;;;;;;12.18;2.75;;;;;;;16.31;70.26;100790.31;4922118;29;20044;-79
2022/06/19 01:00:31;;;;;;;11.05;2.58;;;;;;;16.18;69.69;100790.69;4918941;29;20021;-79
2022/06/19 01:03:03;;;;;;;13.13;2.60;;;;;;;16.07;69.34;100785.59;4926025;29;20052;-80
2022/06/19 01:05:30;;;;;;;9.93;2.75;;;;;;;16.03;69.58;100786.91;4932352;29;20035;-80
2022/06/19 01:07:58;;;;;;;12.57;2.78;;;;;;;15.94;69.56;100783.28;4912048;29;20442;-80
2022/06/19 01:10:24;;;;;;;13.40;2.60;;;;;;;15.88;68.92;100773.28;4903677;29;20028;-80
2022/06/19 01:12:49;;;;;;;13.82;2.97;;;;;;;15.86;69.15;100779.72;4899614;29;20024;-81
2022/06/19 01:15:18;;;;;;;13.25;2.78;;;;;;;15.77;69.25;100785.94;4906314;29;20040;-82
2022/06/19 01:17:47;;;;;;;13.07;2.65;;;;;;;15.79;68.83;100847.63;4891934;29;20031;-80
2022/06/19 01:20:16;;;;;;;12.30;2.88;;;;;;;15.83;68.30;100936.56;4893569;29;20044;-80
2022/06/19 01:22:51;;;;;;;15.95;3.03;;;;;;;15.86;68.20;100968.13;4887082;29;20534;-80
2022/06/19 01:25:27;;;;;;;9.48;2.30;;;;;;;15.80;68.61;100878.50;4905518;29;20059;-81
2022/06/19 01:30:44;;;;;;;10.43;2.90;;;;;;;15.71;67.72;100892.63;4911635;29;20120;-81
2022/06/19 01:33:31;;;;;;;15.15;2.75;;;;;;;15.67;66.70;100923.94;4902939;29;20028;-79
2022/06/19 01:36:00;;;;;;;10.45;2.60;;;;;;;15.63;65.68;100880.09;4902453;29;20016;-79
2022/06/19 01:38:27;;;;;;;13.77;2.70;;;;;;;15.56;65.26;100860.38;4924750;29;20028;-80
2022/06/19 01:40:57;;;;;;;10.52;2.95;;;;;;;15.58;65.27;100915.00;4916162;29;20087;-81
2022/06/19 01:43:23;;;;;;;30.42;4.25;;;;;;;15.54;64.38;100940.09;4905225;29;20040;-80
2022/06/19 01:45:52;;;;;;;11.40;2.38;;;;;;;15.49;64.53;100899.09;4902344;29;20630;-81
2022/06/19 01:48:20;;;;;;;14.27;2.95;;;;;;;15.43;64.20;100884.59;4901211;29;20449;-81
2022/06/19 01:50:47;;;;;;;13.25;3.33;;;;;;;15.44;64.09;100906.63;4904330;29;20132;-81
2022/06/19 01:53:18;;;;;;;13.70;2.97;;;;;;;15.35;63.31;100905.69;4888911;29;20028;-79
2022/06/19 01:55:44;;;;;;;10.82;2.60;;;;;;;15.20;63.30;100893.84;4903028;29;20062;-80
2022/06/19 01:58:10;;;;;;;14.48;2.97;;;;;;;15.22;62.72;100924.56;4904481;29;20040;-81
2022/06/19 02:00:36;;;;;;;15.45;3.53;;;;;;;15.12;62.08;100917.56;4904407;29;20032;-80
2022/06/19 02:03:16;;;;;;;12.60;3.30;;;;;;;15.10;61.94;100915.06;4894200;29;20032;-80
2022/06/19 02:05:42;;;;;;;11.25;2.40;;;;;;;14.99;62.10;100929.28;4901587;29;20032;-81
2022/06/19 02:08:08;;;;;;;13.25;2.88;;;;;;;14.92;61.67;100917.59;4895878;29;20028;-83
2022/06/19 02:10:37;;;;;;;15.15;2.85;;;;;;;14.89;60.52;100917.88;4906806;29;20017;-81
2022/06/19 02:13:02;;;;;;;14.48;2.60;;;;;;;14.83;59.78;100910.47;4903466;29;20083;-81
2022/06/19 02:15:31;;;;;;;15.00;2.50;;;;;;;14.84;59.63;100892.78;4905840;29;20052;-81
2022/06/19 02:18:00;;;;;;;17.17;3.15;;;;;;;14.85;59.67;100899.75;4904435;29;20031;-80
2022/06/19 02:20:25;;;;;;;12.93;3.10;;;;;;;14.82;59.55;100898.22;4901949;29;20059;-81
2022/06/19 02:22:51;;;;;;;15.55;2.70;;;;;;;14.76;60.15;100914.63;4901206;29;20020;-81
2022/06/19 02:25:16;;;;;;;12.27;2.50;;;;;;;14.71;59.57;100919.50;4902989;29;20028;-79
2022/06/19 02:27:42;;;;;;;11.82;2.40;;;;;;;14.71;59.87;100917.69;4901705;29;20036;-79
2022/06/19 02:30:11;;;;;;;12.63;2.30;;;;;;;14.79;59.56;100930.25;4906185;29;20487;-80
2022/06/19 02:32:41;;;;;;;11.48;2.50;;;;;;;14.81;60.34;100932.75;4904582;29;20072;-82
2022/06/19 02:35:14;;;;;;;12.52;2.70;;;;;;;14.83;59.52;100934.31;4904826;29;20070;-80
2022/06/19 02:37:45;;;;;;;16.48;2.60;;;;;;;14.85;59.69;100942.97;4899206;29;20028;-82
2022/06/19 02:40:19;;;;;;;14.80;2.78;;;;;;;14.87;59.34;100935.72;4901936;29;20111;-80
2022/06/19 02:42:47;;;;;;;11.23;2.58;;;;;;;14.92;59.58;100943.25;4896636;29;20110;-80
2022/06/19 02:45:22;;;;;;;12.93;2.85;;;;;;;14.96;59.21;100945.47;4905190;29;20402;-79
2022/06/19 02:47:49;;;;;;;13.75;2.33;;;;;;;14.93;58.33;100924.56;4908793;29;20685;-80
2022/06/19 02:50:23;;;;;;;14.32;2.75;;;;;;;14.98;58.90;100906.44;4907400;29;20040;-80
2022/06/19 02:52:49;;;;;;;12.68;2.33;;;;;;;14.89;57.56;100907.28;4901800;29;20589;-79
2022/06/19 02:55:17;;;;;;;11.00;2.45;;;;;;;14.92;56.92;100928.19;4898087;29;20035;-80
2022/06/19 02:57:42;;;;;;;6.97;1.80;;;;;;;14.94;56.89;100981.88;4901922;29;20553;-80
2022/06/19 03:00:12;;;;;;;11.30;2.13;;;;;;;14.94;56.80;101032.22;4908691;29;20024;-80
2022/06/19 03:02:38;;;;;;;12.52;2.00;;;;;;;14.96;56.41;101038.22;4908446;29;20035;-79
2022/06/19 03:05:06;;;;;;;10.70;2.30;;;;;;;14.95;56.34;100988.84;4892590;29;20024;-80
2022/06/19 03:07:31;;;;;;;11.88;2.22;;;;;;;14.94;55.83;100954.53;4899286;29;20063;-79
2022/06/19 03:09:57;;;;;;;10.55;2.40;;;;;;;14.97;55.90;100948.97;4908115;29;20080;-79
2022/06/19 03:12:23;;;;;;;7.20;2.03;;;;;;;14.93;55.68;100961.66;4907996;29;20031;-80
2022/06/19 03:14:49;;;;;;;8.98;2.20;;;;;;;14.91;55.48;100954.81;4883455;29;20401;-80
2022/06/19 03:17:21;;;;;;;8.10;2.15;;;;;;;14.88;55.23;100933.91;4906177;29;20067;-80
2022/06/19 03:19:47;;;;;;;10.23;1.98;;;;;;;14.75;55.33;100910.31;4912590;29;20020;-79
2022/06/19 03:22:12;;;;;;;11.63;1.95;;;;;;;14.75;55.06;100907.66;4901693;29;20584;-79
2022/06/19 03:24:39;;;;;;;10.82;1.88;;;;;;;14.74;54.78;100904.19;4910208;29;20032;-79
2022/06/19 03:27:06;;;;;;;9.98;1.90;;;;;;;14.68;54.14;100904.75;4905113;29;20576;-82
2022/06/19 03:29:32;;;;;;;5.85;1.48;;;;;;;14.68;54.36;100930.38;4907978;29;20044;-79
2022/06/19 03:31:58;;;;;;;11.82;1.90;;;;;;;14.67;54.28;100939.31;4908232;29;20479;-79
2022/06/19 03:34:23;;;;;;;10.30;1.40;;;;;;;14.65;54.71;100910.31;4902965;29;20039;-79
2022/06/19 03:36:49;;;;;;;10.10;1.77;;;;;;;14.61;54.13;100903.63;4909842;29;20040;-78
2022/06/19 03:39:15;;;;;;;9.05;1.60;;;;;;;14.59;54.63;100907.38;4905337;29;20109;-80
2022/06/19 03:41:41;;;;;;;10.63;1.48;;;;;;;14.59;54.86;100912.69;4904298;29;20087;-79
2022/06/19 03:44:06;;;;;;;5.95;1.20;;;;;;;14.57;54.94;100864.31;4888169;29;20487;-79
2022/06/19 03:46:32;;;;;;;7.47;1.58;;;;;;;14.55;55.50;100850.38;4906764;29;20447;-82
2022/06/19 03:48:58;;;;;;;13.77;1.35;;;;;;;14.49;55.57;100866.84;4908001;29;20032;-78
2022/06/19 03:51:24;;;;;;;9.13;1.75;;;;;;;14.51;55.43;100907.25;4915059;29;20039;-82
2022/06/19 03:53:53;;;;;;;6.93;1.60;;;;;;;14.55;55.97;100988.06;4903334;29;20041;-79
2022/06/19 03:56:25;;;;;;;4.60;1.20;;;;;;;14.58;55.41;101019.56;4904728;29;20028;-78
2022/06/19 03:58:51;;;;;;;3.95;1.17;;;;;;;14.60;53.73;100993.78;4901483;29;20483;-79
2022/06/19 04:01:21;;;;;;;7.10;1.23;;;;;;;14.55;54.16;100922.72;4913015;29;20028;-78
2022/06/19 04:03:48;;;;;;;11.27;1.42;;;;;;;14.55;52.67;100930.66;4904045;29;20526;-79
2022/06/19 04:06:15;;;;;;;8.88;1.40;;;;;;;14.64;53.19;100937.78;4902635;29;20056;-79
2022/06/19 04:08:44;;;;;;;7.15;1.23;;;;;;;14.73;51.81;100914.91;4903828;29;20032;-79
2022/06/19 04:11:10;;;;;;;11.25;1.40;;;;;;;14.74;50.45;100882.16;4906738;29;20036;-78
2022/06/19 04:13:36;;;;;;;11.93;1.58;;;;;;;14.85;50.51;100871.44;4912100;29;20423;-83
2022/06/19 04:16:03;;;;;;;10.20;1.30;;;;;;;14.90;50.81;100839.22;4908361;29;20104;-78
2022/06/19 04:18:30;;;;;;;6.00;1.20;;;;;;;14.89;51.19;100822.50;4908156;29;20062;-80
2022/06/19 04:20:57;;;;;;;10.43;1.52;;;;;;;14.83;51.77;100801.03;4894823;29;20032;-79
2022/06/19 04:23:24;;;;;;;8.20;1.48;;;;;;;14.70;51.93;100786.25;4906879;29;20059;-83
2022/06/19 04:25:49;;;;;;;8.20;1.50;;;;;;;14.70;52.02;100758.94;4903792;29;20034;-78
2022/06/19 04:28:17;;;;;;;9.27;1.27;;;;;;;14.64;52.73;100756.84;4904431;29;20547;-79
2022/06/19 04:30:46;;;;;;;9.80;1.75;;;;;;;14.64;52.82;100759.50;4887138;29;20035;-80
2022/06/19 04:33:13;;;;;;;10.55;1.85;;;;;;;14.61;53.29;100749.19;4904327;29;20032;-80
2022/06/19 04:35:38;;;;;;;9.48;1.60;;;;;;;14.65;53.57;100750.59;4901941;29;20582;-80
2022/06/19 04:38:05;;;;;;;7.35;1.40;;;;;;;14.72;54.44;100752.50;4904836;29;20038;-81
2022/06/19 04:40:30;;;;;;;9.85;1.85;;;;;;;14.70;54.74;100741.22;4903683;29;20441;-79
2022/06/19 04:42:55;;;;;;;12.10;1.83;;;;;;;14.72;54.50;100756.97;4905360;29;20037;-79
2022/06/19 04:45:21;;;;;;;11.05;1.95;;;;;;;14.70;55.06;100756.28;4907574;29;20036;-79
2022/06/19 04:47:46;;;;;;;17.27;2.55;;;;;;;14.69;55.53;100733.44;4906068;29;20024;-79
2022/06/19 04:50:11;;;;;;;19.52;1.90;;;;;;;14.70;55.71;100714.75;4903903;29;20395;-79
2022/06/19 04:52:37;;;;;;;10.23;1.73;;;;;;;14.70;56.06;100704.16;4910074;29;20035;-80
2022/06/19 04:55:02;;;;;;;7.75;1.92;;;;;;;14.71;56.28;100699.69;4889110;29;20550;-78
2022/06/19 04:57:31;;;;;;;11.10;1.75;;;;;;;14.69;56.39;100694.53;4906696;29;20102;-80
2022/06/19 04:59:56;;;;;;;7.32;2.22;;;;;;;14.68;56.57;100692.88;4888645;29;20020;-79
2022/06/19 05:02:21;;;;;;;8.18;1.92;;;;;;;14.72;56.80;100693.41;4889597;29;20102;-79
2022/06/19 05:04:50;;;;;;;8.52;1.80;;;;;;;14.76;56.59;100715.97;4899618;29;20143;-78
2022/06/19 05:07:15;;;;;;;7.82;1.90;;;;;;;14.79;56.27;100741.34;4905667;29;20103;-79
2022/06/19 05:09:40;;;;;;;6.15;1.73;;;;;;;14.84;56.66;100768.28;4906298;29;20107;-79
2022/06/19 05:12:06;;;;;;;9.35;2.17;;;;;;;14.91;56.50;100783.44;4903325;29;20380;-82
2022/06/19 05:14:31;;;;;;;9.05;1.63;;;;;;;14.94;56.59;100775.22;4885901;29;20547;-79
2022/06/19 05:16:57;;;;;;;7.28;1.85;;;;;;;15.00;56.62;100757.91;4904015;29;20368;-78
2022/06/19 05:19:22;;;;;;;11.05;2.00;;;;;;;14.98;56.74;100752.75;4905656;29;20024;-78
2022/06/19 05:21:48;;;;;;;11.68;1.70;;;;;;;15.01;56.53;100773.66;4883536;29;20684;-79
2022/06/19 05:24:13;;;;;;;8.77;2.10;;;;;;;15.01;56.75;100776.31;4905042;29;20091;-78
2022/06/19 05:26:38;;;;;;;9.70;1.95;;;;;;;15.01;56.54;100791.38;4912308;29;20114;-78
2022/06/19 05:29:04;;;;;;;9.32;2.20;;;;;;;15.07;55.95;100819.09;4905509;29;20079;-79
2022/06/19 05:31:31;;;;;;;9.77;1.60;;;;;;;15.12;56.35;100833.59;4887798;29;20032;-78
2022/06/19 05:33:57;;;;;;;8.80;1.92;;;;;;;15.17;56.33;100841.09;4904137;29;20119;-78
2022/06/19 05:36:25;;;;;;;10.35;1.95;;;;;;;15.34;57.95;100877.50;4902876;29;20119;-78
2022/06/19 05:38:51;;;;;;;8.15;1.70;;;;;;;15.57;57.05;100881.47;4901640;29;20032;-82
2022/06/19 05:41:16;;;;;;;8.45;1.80;;;;;;;15.75;57.62;100872.78;4905399;29;20040;-79
2022/06/19 05:43:42;;;;;;;6.03;1.90;;;;;;;15.87;56.33;100887.53;4906817;29;20024;-79
2022/06/19 05:46:14;;;;;;;7.97;2.05;;;;;;;16.07;54.88;100893.59;4904294;29;20487;-79
2022/06/19 05:48:40;;;;;;;;;;;;;;;16.19;55.99;100895.88;4906178;29;20055;-79
2022/06/19 05:51:12;;;;;;;9.57;1.67;;;;;;;16.20;55.37;100878.16;4904933;29;19966;-79
2022/06/19 05:53:41;;;;;;;;;;;;;;;16.32;55.98;100886.72;4902066;29;20112;-79
2022/06/19 05:56:07;;;;;;;9.52;1.98;;;;;;;16.29;55.54;100912.59;4903687;29;20412;-78
2022/06/19 05:58:33;;;;;;;6.35;1.63;;;;;;;16.19;55.61;100925.09;4902155;29;20040;-78
2022/06/19 06:00:59;;;;;;;8.45;1.90;;;;;;;16.29;55.83;100925.88;4905410;29;20032;-78
2022/06/19 06:03:24;;;;;;;6.72;1.95;;;;;;;16.23;55.90;100926.47;4903180;29;20032;-78
2022/06/19 06:05:51;;;;;;;9.43;2.30;;;;;;;16.22;56.70;100927.44;4886758;29;20025;-78
2022/06/19 06:08:17;;;;;;;9.38;1.90;;;;;;;16.22;56.50;100945.19;4886701;29;20395;-79
2022/06/19 06:10:43;;;;;;;9.00;1.92;;;;;;;16.19;56.59;100961.44;4905140;29;20040;-79
2022/06/19 06:13:08;;;;;;;10.10;1.90;;;;;;;16.18;55.94;100992.44;4905054;29;20027;-78
2022/06/19 06:15:34;;;;;;;8.15;1.90;;;;;;;16.18;56.86;100991.63;4901306;29;20140;-79
2022/06/19 06:18:01;;;;;;;8.07;1.98;;;;;;;16.23;57.41;100978.72;4902680;29;20059;-78
2022/06/19 06:20:27;;;;;;;6.78;1.80;;;;;;;16.22;56.08;100972.59;4904489;29;20095;-78
2022/06/19 06:22:52;;;;;;;14.48;2.15;;;;;;;16.18;57.29;101034.94;4905622;29;20526;-78
2022/06/19 06:25:18;;;;;;;6.32;1.80;;;;;;;16.14;56.62;101078.69;4902952;29;20059;-79
2022/06/19 06:27:43;;;;;;;7.30;2.13;;;;;;;16.14;57.64;101076.03;4904815;29;20368;-79
2022/06/19 06:30:11;;;;;;;7.88;1.70;;;;;;;16.07;57.75;101095.34;4912171;29;20035;-79
2022/06/19 06:32:36;;;;;;;11.15;2.35;;;;;;;15.98;61.39;101123.53;4892804;29;20050;-79
2022/06/19 06:35:02;;;;;;;14.20;2.47;;;;;;;15.90;65.56;101171.19;4907456;29;20028;-79
2022/06/19 06:37:27;;;;;;;12.05;2.20;;;;;;;15.75;66.78;101218.53;4909848;29;20032;-80
2022/06/19 06:39:53;;;;;;;13.93;2.65;;;;;;;15.69;67.39;101210.28;4914661;29;20048;-80
2022/06/19 06:42:18;;;;;;;11.65;1.88;;;;;;;15.64;66.24;101210.69;4907089;29;20035;-80
2022/06/19 06:44:46;;;;;;;10.73;1.90;;;;;;;15.55;65.36;101206.16;4908982;29;20036;-80
2022/06/19 06:47:12;;;;;;;10.57;1.77;;;;;;;15.45;68.12;101211.44;4901076;29;20028;-80
2022/06/19 06:49:37;;;;;;;11.82;2.20;;;;;;;15.44;69.65;101209.78;4912004;29;20036;-80
2022/06/19 06:52:07;;;;;;;9.90;2.08;;;;;;;15.42;67.78;101193.16;4914443;29;20513;-81
2022/06/19 06:54:35;;;;;;;9.73;1.92;;;;;;;15.45;70.16;101189.41;4900995;29;20032;-82
2022/06/19 06:57:01;;;;;;;11.77;2.38;;;;;;;15.31;68.65;101177.38;4906504;29;20028;-83
2022/06/19 06:59:26;;;;;;;11.48;2.20;;;;;;;15.38;68.45;101173.19;4909991;29;20032;-80
2022/06/19 07:01:51;;;;;;;8.40;1.90;;;;;;;15.44;69.82;101169.16;4913073;29;20063;-82
2022/06/19 07:04:17;;;;;;;14.95;2.67;;;;;;;15.50;70.23;101156.19;4910691;29;20024;-80
2022/06/19 07:06:42;;;;;;;11.00;2.25;;;;;;;15.41;69.22;101170.28;4911246;29;20028;-81
2022/06/19 07:09:08;;;;;;;11.68;2.33;;;;;;;15.49;70.29;101167.75;4916503;29;20055;-81
2022/06/19 07:11:39;;;;;;;14.90;3.15;;;;;;;15.41;66.47;101182.69;4910689;29;20066;-80
2022/06/19 07:14:05;;;;;;;12.30;2.08;;;;;;;15.24;66.94;101189.50;4901771;29;20052;-80
2022/06/19 07:16:30;;;;;;;12.10;2.28;;;;;;;15.22;67.07;101231.22;4916141;29;20052;-80
2022/06/19 07:18:56;;;;;;;10.07;2.00;;;;;;;15.19;68.94;101229.63;4912519;29;20035;-81
2022/06/19 07:21:21;;;;;;;10.18;2.10;;;;;;;15.03;69.95;101219.53;4912435;29;20035;-81
2022/06/19 07:23:47;;;;;;;8.43;2.25;;;;;;;14.93;68.73;101194.81;4918665;29;20060;-80
2022/06/19 07:26:15;;;;;;;18.92;2.72;;;;;;;14.88;72.49;101151.16;4911908;29;20051;-81
2022/06/19 07:28:41;;;;;;;15.88;2.50;;;;;;;14.68;75.19;101135.16;4883351;29;20060;-79
2022/06/19 07:31:07;;;;;;;13.55;2.72;;;;;;;14.64;75.86;101114.38;4913750;29;20031;-79
2022/06/19 07:33:36;;;;;;;9.90;2.22;;;;;;;14.56;78.38;101095.66;4918770;29;20028;-79
2022/06/19 07:36:04;;;;;;;10.35;2.20;;;;;;;14.40;78.45;101057.22;4917656;29;20033;-79
2022/06/19 07:38:29;;;;;;;11.45;2.88;;;;;;;14.31;79.44;101047.44;4918503;29;20028;-78
2022/06/19 07:40:55;;;;;;;10.43;2.38;;;;;;;14.09;80.09;101050.28;4918662;29;20076;-79
2022/06/19 07:43:21;;;;;;;14.25;2.83;;;;;;;14.00;81.76;101035.16;4900884;29;20039;-78
2022/06/19 07:45:47;;;;;;;11.80;2.63;;;;;;;13.99;82.75;101007.03;4905480;29;20161;-77
2022/06/19 07:50:57;;;;;;;13.05;2.85;;;;;;;14.03;84.09;101041.06;4899734;29;20050;-77
2022/06/19 07:53:23;;;;;;;13.18;3.00;;;;;;;14.04;83.46;101106.22;4902542;29;20028;-78
2022/06/19 07:55:48;;;;;;;13.07;3.22;;;;;;;14.12;85.42;101150.56;4904779;29;20422;-77
2022/06/19 07:58:17;;;;;;;13.85;2.92;;;;;;;14.13;83.29;101189.28;4908033;29;20060;-77
2022/06/19 08:00:43;;;;;;;12.40;2.80;;;;;;;14.11;84.42;101181.47;4905962;29;20040;-78
2022/06/19 08:03:08;;;;;;;18.95;3.10;;;;;;;14.19;86.59;101159.66;4907673;29;20079;-78
2022/06/19 08:05:37;;;;;;;12.35;3.00;;;;;;;14.22;86.35;101132.09;4910533;29;20574;-78
2022/06/19 08:08:06;;;;;;;13.95;2.85;;;;;;;14.22;84.02;101125.00;4903926;29;20507;-78
2022/06/19 08:10:35;;;;;;;13.68;2.70;;;;;;;14.25;83.65;101123.91;4903798;29;20033;-77
2022/06/19 08:13:01;;;;;;;12.13;2.67;;;;;;;14.26;84.90;101081.41;4889220;29;20389;-78
2022/06/19 08:15:27;;;;;;;18.60;3.63;;;;;;;14.32;87.16;101098.56;4906631;29;20050;-77
2022/06/19 08:17:53;;;;;;;16.02;3.25;;;;;;;14.33;87.11;101146.09;4906263;29;20119;-77
2022/06/19 08:20:20;;;;;;;17.25;3.00;;;;;;;14.35;85.96;101125.63;4903965;29;20032;-77
2022/06/19 08:22:45;;;;;;;16.67;3.28;;;;;;;14.35;87.26;101087.72;4903852;29;20115;-78
2022/06/19 08:25:13;;;;;;;17.20;2.90;;;;;;;14.28;86.52;101100.66;4910597;29;21164;-77
2022/06/19 08:27:42;;;;;;;15.63;2.90;;;;;;;14.37;88.41;101088.44;4903102;29;20023;-77
2022/06/19 08:30:11;;;;;;;15.43;3.45;;;;;;;14.54;89.49;101065.84;4907087;29;20047;-77
2022/06/19 08:32:37;;;;;;;14.38;3.00;;;;;;;14.55;88.27;101072.81;4906943;29;20048;-78
2022/06/19 08:35:02;;;;;;;14.55;3.08;;;;;;;14.51;87.25;101055.50;4903938;29;20024;-77
2022/06/19 08:37:33;;;;;;;15.20;3.15;;;;;;;14.61;89.61;101056.38;4908231;29;20550;-77
2022/06/19 08:40:08;;;;;;;15.63;3.38;;;;;;;14.61;88.17;101040.50;4907360;29;20402;-79
2022/06/19 08:42:46;;;;;;;14.52;3.63;;;;;;;14.50;88.06;101022.06;4901052;29;20537;-79
2022/06/19 08:45:49;;;;;;;22.15;6.00;;;;;;;14.33;90.07;100989.91;4904999;29;20040;-78
2022/06/19 08:48:24;;;;;;;13.50;3.45;;;;;;;14.30;90.73;100958.41;4809367;29;20401;-78
2022/06/19 08:51:01;;;;;;;15.02;3.35;;;;;;;14.38;92.42;100971.81;4888388;29;20040;-79
2022/06/19 08:54:05;;;;;;;13.27;3.10;;;;;;;14.42;90.00;100998.88;4904461;29;20036;-79
2022/06/19 08:56:47;;;;;;;17.42;3.70;;;;;;;14.39;89.04;101007.91;4899227;29;20032;-80
2022/06/19 08:59:37;;;;;;;13.90;3.28;;;;;;;14.52;89.69;101001.59;4905001;29;20039;-80
2022/06/19 09:02:29;;;;;;;17.70;3.15;;;;;;;14.56;88.56;101016.22;4904636;29;20036;-80
2022/06/19 09:08:15;;;;;;;12.00;3.03;;;;;;;14.66;85.20;101048.88;4907037;29;20562;-78
2022/06/19 09:11:22;;;;;;;17.13;3.40;;;;;;;14.86;85.33;101068.31;4902913;29;20402;-79
2022/06/19 09:13:58;;;;;;;10.60;2.63;;;;;;;14.92;82.85;101079.22;4880708;29;20136;-79
2022/06/19 09:17:00;;;;;;;12.50;3.10;;;;;;;15.18;83.96;101118.44;4909618;29;20499;-79
2022/06/19 09:19:49;;;;;;;14.27;3.50;;;;;;;15.23;83.34;101150.72;4897199;29;20104;-79
2022/06/19 09:22:36;;;;;;;12.50;2.97;;;;;;;15.27;83.64;101154.75;4902127;29;20076;-79
2022/06/19 09:25:10;;;;;;;13.23;3.72;;;;;;;15.40;84.16;101134.13;4903678;29;20068;-80
2022/06/19 09:27:49;;;;;;;14.00;3.33;;;;;;;15.43;82.39;101128.53;4910565;29;20028;-79
2022/06/19 09:30:25;;;;;;;13.52;3.25;;;;;;;15.52;81.84;101127.69;4912182;29;20036;-80
2022/06/19 09:33:15;;;;;;;12.00;3.28;;;;;;;15.63;82.74;101124.97;4915237;29;20390;-80
2022/06/19 09:36:01;;;;;;;12.82;2.80;;;;;;;15.55;79.37;101111.50;4914779;29;20518;-80
2022/06/19 09:38:47;;;;;;;9.40;2.70;;;;;;;15.51;77.07;101109.28;4911068;29;20071;-81
2022/06/19 09:41:21;;;;;;;12.95;2.95;;;;;;;15.47;75.41;101092.81;4912196;29;20558;-82
2022/06/19 09:43:57;;;;;;;10.85;2.88;;;;;;;15.59;77.77;101075.81;4903761;29;20443;-82
2022/06/19 09:46:41;;;;;;;12.95;3.08;;;;;;;15.72;76.49;101058.78;4902299;29;20076;-82
2022/06/19 09:49:22;;;;;;;11.18;3.30;;;;;;;15.92;77.44;101039.19;4909838;29;20115;-81
2022/06/19 09:52:09;;;;;;;8.32;2.90;;;;;;;15.94;77.56;101045.19;4906878;29;20043;-81
2022/06/19 09:54:43;;;;;;;11.05;2.60;;;;;;;16.14;77.25;101053.94;4888128;29;20573;-81
2022/06/19 09:57:31;;;;;;;11.23;2.78;;;;;;;16.23;75.94;101053.91;4906079;29;20032;-82
2022/06/19 10:00:07;;;;;;;10.32;2.80;;;;;;;16.03;73.75;101031.06;4902688;29;20099;-81
2022/06/19 10:03:00;;;;;;;10.98;3.00;;;;;;;16.14;75.71;101028.25;4909936;29;20048;-81
2022/06/19 10:05:41;;;;;;;11.82;2.90;;;;;;;16.05;74.28;101021.16;4909675;29;20123;-81
2022/06/19 10:08:25;;;;;;;11.20;3.13;;;;;;;15.91;73.59;101026.91;4908797;29;20540;-81
2022/06/19 10:10:56;;;;;;;12.18;3.22;;;;;;;16.07;75.97;101005.91;4908524;29;20107;-81
2022/06/19 10:13:59;;;;;;;14.82;3.75;;;;;;;16.23;76.21;100995.50;4905974;29;20041;-81
2022/06/19 10:16:44;;;;;;;11.95;3.33;;;;;;;16.55;74.33;100984.44;4900345;29;20147;-81
2022/06/19 10:19:21;;;;;;;9.15;2.75;;;;;;;16.55;72.36;100989.75;4906210;29;20111;-81
2022/06/19 10:22:15;;;;;;;10.73;2.83;;;;;;;16.74;73.68;100980.00;4885084;29;20024;-81
2022/06/19 10:24:56;;;;;;;12.75;2.88;;;;;;;17.10;74.62;100975.56;4905238;29;20386;-81
2022/06/19 10:27:52;;;;;;;13.00;3.25;;;;;;;17.35;72.05;100969.47;4901162;29;20030;-81
2022/06/19 10:30:22;;;;;;;10.85;2.50;;;;;;;17.35;67.08;100979.28;4904099;29;20181;-83
2022/06/19 10:32:50;;;;;;;11.63;2.63;;;;;;;17.45;67.12;100993.31;4914375;29;20028;-81
2022/06/19 10:35:31;;;;;;;8.57;2.22;;;;;;;17.71;68.51;100999.53;4905152;29;20514;-82
2022/06/19 10:38:03;;;;;;;7.07;2.10;;;;;;;17.68;65.61;101001.69;4899379;29;20435;-83
2022/06/19 10:40:42;;;;;;;6.80;2.30;;;;;;;17.57;64.31;100991.22;4913198;29;20090;-82
2022/06/19 10:43:18;;;;;;;5.93;1.50;;;;;;;17.58;62.42;100983.09;4904704;29;20440;-83
2022/06/19 10:45:48;;;;;;;9.27;1.90;;;;;;;17.60;58.83;100988.25;4895324;29;20443;-80
2022/06/19 10:48:19;;;;;;;4.90;1.40;;;;;;;17.65;58.11;100988.66;4905568;29;20024;-82
2022/06/19 10:51:10;;;;;;;4.03;1.40;;;;;;;17.77;60.46;100995.41;4912192;29;20399;-82
2022/06/19 10:54:14;;;;;;;6.80;1.70;;;;;;;17.91;59.98;101012.63;4904504;29;20827;-82
2022/06/19 10:57:08;;;;;;;5.78;1.73;;;;;;;17.79;60.49;101030.69;4912790;29;20122;-81
2022/06/19 10:59:34;;;;;;;9.10;1.90;;;;;;;17.90;61.40;101041.06;4897020;29;20044;-81
2022/06/19 11:05:03;;;;;;;5.72;1.60;;;;;;;18.09;59.05;101046.22;4896551;29;20103;-82
2022/06/19 11:07:30;;;;;;;5.05;1.48;;;;;;;18.16;57.97;101036.59;4887600;29;20039;-82
2022/06/19 11:10:01;;;;;;;5.93;1.80;;;;;;;18.33;59.39;101037.50;4898413;29;20447;-81
2022/06/19 11:12:38;;;;;;;7.00;1.85;;;;;;;18.66;59.70;101029.69;4889003;29;20028;-81
2022/06/19 11:15:10;;;;;;;6.70;1.65;;;;;;;18.87;57.38;101039.94;4897192;29;20139;-81
2022/06/19 11:17:39;;;;;;;5.07;1.52;;;;;;;19.05;56.60;101048.63;4906871;29;20483;-81
2022/06/19 11:20:24;;;;;;;5.78;1.88;;;;;;;19.15;58.46;101073.31;4905079;29;20395;-81
2022/06/19 11:22:57;;;;;;;10.63;1.90;;;;;;;19.01;57.53;101076.63;4904610;29;20033;-79
2022/06/19 11:25:30;;;;;;;7.78;1.70;;;;;;;19.04;59.15;101069.13;4892886;29;20024;-80
2022/06/19 11:27:55;;;;;;;6.70;1.77;;;;;;;19.19;57.75;101066.66;4918110;29;20036;-79
2022/06/19 11:31:06;;;;;;;8.18;1.63;;;;;;;19.30;58.52;101065.53;4915133;29;20034;-79
2022/06/19 11:33:36;;;;;;;5.78;1.85;;;;;;;19.37;57.25;101079.88;4881564;29;20047;-79
2022/06/19 11:36:06;;;;;;;6.97;1.92;;;;;;;19.52;56.11;101080.03;4917519;29;20036;-79
2022/06/19 11:38:45;;;;;;;11.10;2.20;;;;;;;19.62;55.26;101078.94;4910167;29;20024;-79
2022/06/19 11:41:29;;;;;;;4.15;1.80;;;;;;;19.61;55.49;101081.75;4909342;29;20795;-79
2022/06/19 11:44:00;;;;;;;7.35;2.00;;;;;;;19.54;55.50;101078.91;4905243;29;20024;-78
2022/06/19 11:46:26;;;;;;;4.88;1.85;;;;;;;19.51;56.66;101076.53;4912304;29;20506;-80
2022/06/19 11:48:54;;;;;;;8.27;2.42;;;;;;;19.41;56.28;101075.88;4905405;29;20557;-80